Cold Spring, Minnesota
Current Conditions -  °F | °C
As of 12:54 PM on Thursday 23 Oct 2014 (Local Time) from KPEX Reporting Station
Clear Clear  
Wind Chill: 60°   Ceiling: Unl
Heat Index: 60°   Visibility: 10mi
Dew Point: 51°   Wind: 0mph
Humidity: 70%   Direction: NA
Pressure: 29.98"   Gusts: NA
Location:  45.46°N, 94.43°W
Report Text: KPEX 231754Z AUTO 00000KT 10SM CLR 16/10 A2998 RMK AO2 T01580103 10158 20078
Loading
Personal Weather Stations






























Interactive Weather Map
Tropical Storm Tracking
New forecast layout! Learn more

10-Day Weather Forecast

Advertisements
Track Severe Weather on mobile